Time;durP1;ratioP1;P1;durP2;ratioP2;P2;SDS_P1;SDS_P2;PMS_P1;PMS_P2;Temp;Humidity;BMP_temperature;BMP_pressure;BME280_temperature;BME280_humidity;BME280_pressure;Samples;Min_cycle;Max_cycle;Signal;HPM_P1;HPM_P2
2022/09/17 00:01:21;;;;;;;4.30;2.40;;;;;;;25.81;53.52;99695.06;5077211;28;20481;-72
2022/09/17 00:03:54;;;;;;;3.78;2.35;;;;;;;25.82;53.55;99685.88;5078282;28;20048;-72
2022/09/17 00:06:23;;;;;;;;;;;;;;;25.81;53.67;99682.31;5077929;28;20385;-73
2022/09/17 00:08:54;;;;;;;6.68;2.78;;;;;;;25.82;53.84;99678.56;5077370;28;19920;-72
2022/09/17 00:11:27;;;;;;;4.10;2.42;;;;;;;25.82;53.70;99680.44;5077438;28;20056;-73
2022/09/17 00:13:56;;;;;;;4.53;2.38;;;;;;;25.81;53.76;99679.63;5078076;28;20392;-72
2022/09/17 00:16:39;;;;;;;3.53;2.25;;;;;;;25.82;53.63;99678.56;5077186;28;20049;-72
2022/09/17 00:19:09;;;;;;;;;;;;;;;25.82;53.56;99685.88;5078040;28;20067;-72
2022/09/17 00:21:36;;;;;;;5.70;3.03;;;;;;;25.84;53.64;99700.03;5077566;28;19920;-72
2022/09/17 00:24:05;;;;;;;5.47;2.13;;;;;;;25.82;53.64;99694.00;5077053;28;20044;-72
2022/09/17 00:26:33;;;;;;;5.22;2.58;;;;;;;25.83;53.84;99693.78;5076989;28;20059;-72
2022/09/17 00:29:01;;;;;;;8.88;2.67;;;;;;;25.84;53.69;99695.47;5077193;28;20051;-72
2022/09/17 00:31:29;;;;;;;4.72;2.78;;;;;;;25.83;53.70;99696.50;5077178;28;20049;-72
2022/09/17 00:33:58;;;;;;;7.22;2.60;;;;;;;25.84;53.81;99695.47;5075775;28;20056;-72
2022/09/17 00:36:26;;;;;;;6.70;3.08;;;;;;;25.84;53.92;99692.75;5076725;28;20048;-72
2022/09/17 00:38:57;;;;;;;3.25;1.92;;;;;;;25.83;54.02;99692.97;5077586;28;20067;-72
2022/09/17 00:41:30;;;;;;;4.25;2.10;;;;;;;25.85;53.92;99690.91;5077315;28;20399;-72
2022/09/17 00:43:59;;;;;;;;;;;;;;;25.85;53.89;99699.03;5076112;28;20053;-72
2022/09/17 00:46:40;;;;;;;4.88;2.50;;;;;;;25.84;54.00;99698.16;5076716;28;19920;-72
2022/09/17 00:49:15;;;;;;;4.13;2.22;;;;;;;25.85;53.99;99690.91;5077128;28;20049;-72
2022/09/17 00:52:13;;;;;;;4.75;2.03;;;;;;;25.83;54.28;99688.38;5077099;28;20063;-72
2022/09/17 00:54:45;;;;;;;6.13;2.45;;;;;;;25.84;54.18;99694.63;5075949;28;20052;-72
2022/09/17 00:57:13;;;;;;;5.30;2.88;;;;;;;25.84;54.03;99690.03;5077037;28;20044;-72
2022/09/17 00:59:40;;;;;;;5.18;2.20;;;;;;;25.85;54.11;99697.16;5076402;28;20484;-72
2022/09/17 01:02:08;;;;;;;5.45;2.60;;;;;;;25.85;54.05;99699.03;5076347;28;20051;-72
2022/09/17 01:04:35;;;;;;;7.30;2.00;;;;;;;25.85;54.10;99701.75;5076312;28;20226;-72
2022/09/17 01:07:37;;;;;;;5.28;2.10;;;;;;;25.84;54.12;99700.88;5076692;28;20048;-72
2022/09/17 01:10:17;;;;;;;5.07;2.53;;;;;;;25.85;53.97;99704.44;5074227;28;20531;-72
2022/09/17 01:12:56;;;;;;;6.13;2.40;;;;;;;25.85;54.30;99701.75;5055329;28;20064;-72
2022/09/17 01:15:31;;;;;;;4.72;2.35;;;;;;;25.85;54.17;99704.44;5074364;28;20060;-72
2022/09/17 01:18:14;;;;;;;4.20;2.25;;;;;;;25.84;54.15;99709.00;5058297;28;20052;-72
2022/09/17 01:21:08;;;;;;;3.97;2.45;;;;;;;25.86;54.05;99719.69;5074614;28;20061;-72
2022/09/17 01:24:24;;;;;;;4.13;2.30;;;;;;;25.85;54.07;99713.41;5074327;28;20420;-72
2022/09/17 01:27:09;;;;;;;6.13;1.90;;;;;;;25.86;54.06;99714.25;5034446;28;20061;-72
2022/09/17 01:30:16;;;;;;;5.75;1.75;;;;;;;25.86;54.10;99708.84;5034426;28;20049;-72
2022/09/17 01:32:44;;;;;;;4.28;2.20;;;;;;;25.87;54.06;99707.78;5033879;28;20441;-72
2022/09/17 01:35:31;;;;;;;4.40;2.00;;;;;;;25.86;54.11;99708.84;5034284;28;20045;-72
2022/09/17 01:38:01;;;;;;;4.65;2.35;;;;;;;25.86;54.21;99708.84;5034005;28;20057;-72
2022/09/17 01:40:39;;;;;;;4.43;2.40;;;;;;;25.87;54.13;99710.50;5033897;28;20064;-72
2022/09/17 01:43:39;;;;;;;3.63;2.20;;;;;;;25.86;54.18;99703.41;5034401;28;20097;-72
2022/09/17 01:46:15;;;;;;;4.40;2.17;;;;;;;25.85;54.16;99702.56;5026642;28;20057;-72
2022/09/17 01:48:47;;;;;;;3.30;1.90;;;;;;;25.86;54.07;99706.94;5053827;28;20052;-72
2022/09/17 01:51:24;;;;;;;4.22;2.05;;;;;;;25.87;54.15;99700.47;5054019;28;20068;-72
2022/09/17 01:54:17;;;;;;;3.85;1.88;;;;;;;25.86;54.20;99700.69;5054208;28;20497;-72
2022/09/17 01:57:00;;;;;;;3.08;2.00;;;;;;;25.86;54.13;99701.53;5053843;28;20057;-72
2022/09/17 01:59:37;;;;;;;4.22;2.20;;;;;;;25.87;54.23;99710.50;5054112;28;20053;-71
2022/09/17 02:02:16;;;;;;;4.40;1.70;;;;;;;25.86;54.15;99698.81;5053788;28;20057;-72
2022/09/17 02:04:55;;;;;;;3.22;1.83;;;;;;;25.87;54.12;99702.38;5076028;28;20056;-72
2022/09/17 02:07:24;;;;;;;6.15;2.05;;;;;;;25.87;54.12;99705.06;5075200;28;20044;-72
2022/09/17 02:10:02;;;;;;;5.35;2.08;;;;;;;25.86;54.10;99709.66;5075855;28;20052;-72
2022/09/17 02:12:38;;;;;;;3.00;1.77;;;;;;;25.86;54.08;99716.97;5075214;28;20400;-72
2022/09/17 02:15:13;;;;;;;5.28;1.70;;;;;;;25.86;54.26;99717.78;5075243;28;20111;-72
2022/09/17 02:17:51;;;;;;;4.75;1.67;;;;;;;25.86;54.23;99725.94;5075496;28;20052;-72
2022/09/17 02:20:25;;;;;;;8.75;2.55;;;;;;;25.87;54.24;99721.34;5075477;28;20048;-72
2022/09/17 02:22:57;;;;;;;5.88;2.00;;;;;;;25.88;53.88;99721.13;5074995;28;20055;-72
2022/09/17 02:25:32;;;;;;;;;;;;;;;25.86;54.08;99706.94;5076078;28;20052;-72
2022/09/17 02:28:11;;;;;;;4.53;1.85;;;;;;;25.85;54.09;99699.88;5075052;28;20386;-72
2022/09/17 02:30:39;;;;;;;6.40;1.80;;;;;;;25.85;53.98;99696.31;5074961;28;20481;-72
2022/09/17 02:33:11;;;;;;;4.80;1.60;;;;;;;25.83;54.11;99685.66;5074947;28;20048;-72
2022/09/17 02:35:38;;;;;;;3.22;1.80;;;;;;;25.85;54.34;99685.47;5074926;28;20047;-72
2022/09/17 02:38:05;;;;;;;4.85;1.65;;;;;;;25.84;54.13;99675.66;5074755;28;20507;-72
2022/09/17 02:40:48;;;;;;;4.25;1.83;;;;;;;25.83;54.07;99682.94;5075014;28;20404;-72
2022/09/17 02:43:27;;;;;;;4.78;1.67;;;;;;;25.82;54.01;99684.00;5075264;28;20057;-72
2022/09/17 02:46:13;;;;;;;4.25;1.40;;;;;;;25.81;53.91;99679.63;5074638;28;20053;-72
2022/09/17 02:49:06;;;;;;;4.78;1.70;;;;;;;25.82;53.85;99686.69;5074291;28;20059;-71
2022/09/17 02:51:36;;;;;;;5.05;1.98;;;;;;;25.81;53.73;99679.63;5074547;28;20044;-72
2022/09/17 02:54:40;;;;;;;7.07;1.60;;;;;;;25.81;53.64;99684.22;5074709;28;20048;-72
2022/09/17 02:57:54;;;;;;;3.85;1.60;;;;;;;25.80;53.30;99668.97;5072992;28;20412;-73
2022/09/17 03:00:24;;;;;;;8.20;1.80;;;;;;;25.79;53.36;99665.41;5073018;28;20404;-72
2022/09/17 03:03:15;;;;;;;5.97;1.73;;;;;;;25.78;53.28;99639.34;5040441;28;20045;-72
2022/09/17 03:05:44;;;;;;;4.97;1.52;;;;;;;25.77;53.02;99642.25;5072890;28;20416;-72
2022/09/17 03:08:13;;;;;;;5.45;1.80;;;;;;;25.75;52.69;99647.84;5075000;28;20071;-72
2022/09/17 03:10:40;;;;;;;2.72;1.60;;;;;;;25.75;52.50;99647.84;5074437;28;20055;-72
2022/09/17 03:13:07;;;;;;;4.00;1.50;;;;;;;25.74;52.34;99629.09;5073883;28;20512;-72
2022/09/17 03:15:35;;;;;;;5.40;1.52;;;;;;;25.73;52.56;99624.72;5073879;28;20049;-72
2022/09/17 03:18:02;;;;;;;4.35;1.55;;;;;;;25.73;52.25;99624.72;5074081;28;20098;-73
2022/09/17 03:20:29;;;;;;;3.42;1.40;;;;;;;25.72;52.78;99626.56;5073149;28;20048;-72
2022/09/17 03:22:57;;;;;;;2.75;1.35;;;;;;;25.71;52.69;99629.47;5073741;28;20059;-72
2022/09/17 03:25:24;;;;;;;3.35;1.25;;;;;;;25.70;52.30;99635.94;5074264;28;20047;-74
2022/09/17 03:27:51;;;;;;;3.30;1.40;;;;;;;25.68;52.23;99629.88;5073044;28;20053;-73
2022/09/17 03:30:19;;;;;;;2.85;1.50;;;;;;;25.69;52.16;99628.88;5073677;28;20048;-73
2022/09/17 03:32:46;;;;;;;4.28;1.88;;;;;;;25.66;52.39;99616.53;5073556;28;20047;-72
2022/09/17 03:35:13;;;;;;;3.58;1.42;;;;;;;25.67;52.06;99622.78;5073205;28;20111;-72
2022/09/17 03:37:41;;;;;;;3.25;1.42;;;;;;;25.68;52.07;99629.88;5074303;28;20045;-73
2022/09/17 03:40:09;;;;;;;3.97;1.40;;;;;;;25.67;51.81;99637.19;5073548;28;20052;-73
2022/09/17 03:42:37;;;;;;;3.53;1.40;;;;;;;25.67;51.89;99630.94;5074044;28;20048;-73
2022/09/17 03:45:04;;;;;;;4.07;1.42;;;;;;;25.67;52.06;99617.38;5073767;28;20404;-72
2022/09/17 03:47:32;;;;;;;4.22;1.45;;;;;;;25.66;52.07;99616.53;5073641;28;20499;-72
2022/09/17 03:49:59;;;;;;;6.97;1.48;;;;;;;25.65;51.80;99609.47;5073313;28;20059;-73
2022/09/17 03:52:26;;;;;;;4.32;1.27;;;;;;;25.63;51.83;99612.34;5073425;28;20048;-73
2022/09/17 03:54:53;;;;;;;3.25;1.30;;;;;;;25.64;51.72;99599.63;5073411;28;20048;-73
2022/09/17 03:57:21;;;;;;;2.17;1.45;;;;;;;25.64;51.59;99597.78;5073566;28;20056;-73
2022/09/17 03:59:50;;;;;;;3.85;2.03;;;;;;;25.63;51.82;99582.53;5073890;28;20060;-73
2022/09/17 04:02:17;;;;;;;3.22;1.30;;;;;;;25.62;51.81;99589.00;5073614;28;20052;-73
2022/09/17 04:04:44;;;;;;;6.35;1.45;;;;;;;25.61;51.45;99598.19;5073543;28;20041;-74
2022/09/17 04:07:11;;;;;;;3.17;1.52;;;;;;;25.61;51.74;99609.03;5073827;28;20051;-73
2022/09/17 04:09:39;;;;;;;5.57;1.52;;;;;;;25.62;51.56;99612.56;5074071;28;20048;-72
2022/09/17 04:12:06;;;;;;;2.85;1.45;;;;;;;25.62;51.43;99610.69;5073245;28;20045;-73
2022/09/17 04:14:33;;;;;;;3.28;1.55;;;;;;;25.62;51.29;99609.84;5073403;28;20404;-73
2022/09/17 04:17:01;;;;;;;3.55;1.27;;;;;;;25.63;51.51;99595.25;5072982;28;20044;-73
2022/09/17 04:19:28;;;;;;;2.88;1.58;;;;;;;25.63;51.32;99596.09;5073190;28;20049;-74
2022/09/17 04:21:55;;;;;;;2.45;1.15;;;;;;;25.64;51.15;99613.19;5072227;28;20045;-73
2022/09/17 04:24:23;;;;;;;2.30;1.30;;;;;;;25.64;50.98;99624.03;5072291;28;20511;-73
2022/09/17 04:26:50;;;;;;;5.53;1.48;;;;;;;25.63;51.00;99634.03;5073582;28;20047;-73
2022/09/17 04:29:17;;;;;;;3.28;1.35;;;;;;;25.63;51.17;99638.63;5073636;28;20493;-73
2022/09/17 04:31:44;;;;;;;2.83;1.13;;;;;;;25.63;51.39;99653.00;5072949;28;20040;-73
2022/09/17 04:34:12;;;;;;;2.55;1.30;;;;;;;25.64;51.56;99662.84;5073010;28;20053;-73
2022/09/17 04:36:39;;;;;;;2.60;1.38;;;;;;;25.63;51.79;99661.13;5073508;28;20049;-73
2022/09/17 04:39:07;;;;;;;3.25;1.30;;;;;;;25.63;51.75;99666.56;5073202;28;20404;-73
2022/09/17 04:41:35;;;;;;;5.97;1.48;;;;;;;25.62;52.07;99662.19;5073465;28;20353;-73
2022/09/17 04:44:02;;;;;;;4.55;1.30;;;;;;;25.63;52.09;99666.56;5073335;28;20037;-73
2022/09/17 04:46:29;;;;;;;2.42;1.30;;;;;;;25.63;52.01;99663.03;5074752;28;20044;-73
2022/09/17 04:48:57;;;;;;;4.53;1.67;;;;;;;25.63;52.29;99671.97;5077130;28;20053;-74
2022/09/17 04:51:25;;;;;;;5.20;1.40;;;;;;;25.63;52.21;99665.72;5076484;28;20044;-73
2022/09/17 04:53:52;;;;;;;3.65;1.55;;;;;;;25.63;52.24;99665.72;5075883;28;20049;-73
2022/09/17 04:56:19;;;;;;;3.47;1.35;;;;;;;25.62;52.20;99667.59;5077134;28;20060;-73
2022/09/17 04:58:46;;;;;;;3.15;1.35;;;;;;;25.62;52.33;99670.31;5076906;28;20052;-73
2022/09/17 05:01:17;;;;;;;5.22;1.73;;;;;;;25.61;52.34;99665.94;5076279;28;20408;-73
2022/09/17 05:03:45;;;;;;;4.80;1.60;;;;;;;25.60;52.18;99664.28;5076603;28;20055;-73
2022/09/17 05:06:12;;;;;;;3.92;1.48;;;;;;;25.60;52.00;99667.00;5076792;28;20051;-73
2022/09/17 05:08:39;;;;;;;4.38;1.55;;;;;;;25.61;52.17;99667.81;5076908;28;20484;-73
2022/09/17 05:11:06;;;;;;;5.60;1.58;;;;;;;25.60;52.08;99682.38;5075538;28;20051;-73
2022/09/17 05:13:34;;;;;;;4.60;1.90;;;;;;;25.59;52.12;99680.72;5076368;28;20048;-73
2022/09/17 05:16:01;;;;;;;10.02;1.95;;;;;;;25.58;52.15;99690.72;5076039;28;20399;-73
2022/09/17 05:18:29;;;;;;;2.42;1.35;;;;;;;25.58;52.11;99698.03;5076265;28;20173;-73
2022/09/17 05:20:56;;;;;;;3.95;1.42;;;;;;;25.57;51.97;99699.06;5075384;28;20036;-73
2022/09/17 05:23:23;;;;;;;4.20;1.45;;;;;;;25.55;51.94;99707.38;5075983;28;20051;-73
2022/09/17 05:25:51;;;;;;;5.97;1.67;;;;;;;25.54;52.01;99704.88;5076225;28;20048;-73
2022/09/17 05:28:19;;;;;;;4.38;1.40;;;;;;;25.53;51.95;99712.19;5075914;28;20041;-73
2022/09/17 05:30:46;;;;;;;2.63;1.30;;;;;;;25.53;51.91;99716.75;5075973;28;20056;-73
2022/09/17 05:33:13;;;;;;;7.18;1.63;;;;;;;25.52;51.73;99718.66;5075644;28;20045;-73
2022/09/17 05:35:42;;;;;;;3.75;1.60;;;;;;;25.52;51.37;99726.78;5074844;28;20475;-73
2022/09/17 05:38:10;;;;;;;2.53;1.40;;;;;;;25.50;51.51;99723.41;5075583;28;20408;-73
2022/09/17 05:40:37;;;;;;;3.72;1.55;;;;;;;25.49;51.48;99721.75;5076199;28;20048;-73
2022/09/17 05:43:06;;;;;;;3.03;1.50;;;;;;;25.48;51.33;99717.38;5075496;28;20040;-73
2022/09/17 05:45:34;;;;;;;3.22;1.45;;;;;;;25.48;51.31;99711.09;5076359;28;20036;-73
2022/09/17 05:48:03;;;;;;;2.40;1.38;;;;;;;25.47;51.18;99714.84;5074595;28;20048;-73
2022/09/17 05:50:32;;;;;;;3.15;1.10;;;;;;;25.46;50.92;99719.44;5074342;28;20044;-73
2022/09/17 05:53:04;;;;;;;4.15;1.20;;;;;;;25.44;50.88;99726.91;5075233;28;20045;-73
2022/09/17 05:55:36;;;;;;;2.97;1.40;;;;;;;25.43;50.68;99722.53;5076077;28;20048;-73
2022/09/17 05:58:11;;;;;;;2.75;1.20;;;;;;;25.42;50.53;99729.00;5075037;28;20041;-73
2022/09/17 06:00:40;;;;;;;2.10;1.13;;;;;;;25.43;50.29;99746.06;5075953;28;20075;-73
2022/09/17 06:03:10;;;;;;;3.25;1.48;;;;;;;25.40;50.08;99755.44;5075687;28;20052;-73
2022/09/17 06:05:38;;;;;;;2.13;1.08;;;;;;;25.39;50.16;99761.88;5075701;28;20055;-73
2022/09/17 06:08:06;;;;;;;2.15;1.27;;;;;;;25.38;50.13;99766.47;5075783;28;20473;-73
2022/09/17 06:10:37;;;;;;;2.95;1.40;;;;;;;25.37;49.86;99769.41;5075176;28;20052;-73
2022/09/17 06:13:05;;;;;;;3.25;1.40;;;;;;;25.36;49.94;99773.97;5075112;28;20053;-73
2022/09/17 06:15:32;;;;;;;2.72;1.30;;;;;;;25.36;50.07;99781.25;5074949;28;20404;-73
2022/09/17 06:18:00;;;;;;;5.05;1.70;;;;;;;25.34;50.13;99778.75;5075380;28;20047;-73
2022/09/17 06:20:27;;;;;;;4.72;1.65;;;;;;;25.33;49.94;99778.94;5075109;28;20048;-73
2022/09/17 06:22:58;;;;;;;4.18;1.55;;;;;;;25.32;49.91;99774.53;5075544;28;20044;-73
2022/09/17 06:25:25;;;;;;;3.63;1.52;;;;;;;25.30;50.13;99774.75;5074987;28;20044;-73
2022/09/17 06:27:52;;;;;;;3.42;1.50;;;;;;;25.29;50.08;99783.91;5074639;28;20041;-73
2022/09/17 06:30:20;;;;;;;3.63;1.88;;;;;;;25.29;49.90;99799.34;5074654;28;20053;-73
2022/09/17 06:32:47;;;;;;;4.18;1.55;;;;;;;25.26;49.90;99808.69;5075428;28;20044;-73
2022/09/17 06:35:14;;;;;;;4.60;1.60;;;;;;;25.26;49.89;99811.41;5074012;28;20040;-73
2022/09/17 06:37:41;;;;;;;5.38;1.85;;;;;;;25.25;49.94;99800.78;5074717;28;20052;-73
2022/09/17 06:40:09;;;;;;;6.53;2.03;;;;;;;25.24;49.81;99812.63;5074653;28;20400;-74
2022/09/17 06:42:37;;;;;;;5.40;1.50;;;;;;;25.23;49.65;99854.28;5074317;28;20056;-74
2022/09/17 06:45:04;;;;;;;6.00;1.70;;;;;;;25.21;49.55;99840.94;5074926;28;20056;-74
2022/09/17 06:47:38;;;;;;;4.32;1.55;;;;;;;25.20;49.28;99862.78;5057381;28;20049;-74
2022/09/17 06:50:05;;;;;;;3.63;1.67;;;;;;;25.14;48.72;99870.66;5074455;28;20045;-73
2022/09/17 06:52:33;;;;;;;3.28;1.60;;;;;;;25.13;48.79;99877.13;5074471;28;20051;-73
2022/09/17 06:55:00;;;;;;;5.22;1.77;;;;;;;25.08;49.02;99881.41;5074734;28;20056;-74
2022/09/17 06:57:27;;;;;;;3.78;1.75;;;;;;;25.05;48.71;99874.50;5074150;28;20037;-74
2022/09/17 06:59:54;;;;;;;3.33;1.40;;;;;;;25.05;48.71;99898.88;5074462;28;20067;-73
2022/09/17 07:02:22;;;;;;;3.88;1.88;;;;;;;25.03;48.87;99919.88;5074774;28;20044;-73
2022/09/17 07:04:49;;;;;;;3.38;1.48;;;;;;;25.03;48.90;99956.97;5074745;28;20397;-73
2022/09/17 07:07:16;;;;;;;3.30;1.45;;;;;;;25.00;48.66;99985.28;5074617;28;20055;-73
2022/09/17 07:09:44;;;;;;;4.53;1.50;;;;;;;24.99;48.69;100002.53;5074170;28;20045;-73
2022/09/17 07:12:12;;;;;;;2.75;1.50;;;;;;;24.97;48.74;100028.97;5073793;28;20048;-73
2022/09/17 07:14:40;;;;;;;2.28;1.35;;;;;;;24.95;48.76;100049.97;5073876;28;20064;-73
2022/09/17 07:17:07;;;;;;;2.65;1.35;;;;;;;24.94;48.85;100055.59;5073829;28;20377;-73
2022/09/17 07:19:34;;;;;;;3.78;1.40;;;;;;;24.91;48.79;100063.06;5074268;28;20041;-72
2022/09/17 07:22:02;;;;;;;2.47;1.23;;;;;;;24.90;48.73;100072.19;5074295;28;20063;-73
2022/09/17 07:24:29;;;;;;;1.73;1.00;;;;;;;24.90;48.62;100099.28;5073971;28;20044;-73
2022/09/17 07:27:00;;;;;;;3.28;1.20;;;;;;;24.92;48.88;100121.59;5074547;28;20484;-73
2022/09/17 07:29:27;;;;;;;2.75;1.00;;;;;;;24.90;48.62;100133.63;5073687;28;20404;-73
2022/09/17 07:31:55;;;;;;;2.17;1.20;;;;;;;24.91;48.78;100160.53;5074388;28;20041;-73
2022/09/17 07:34:22;;;;;;;3.65;1.20;;;;;;;24.89;48.35;100183.41;5073489;28;20052;-73
2022/09/17 07:36:49;;;;;;;3.13;1.35;;;;;;;24.89;48.51;100191.53;5073509;28;20158;-73
2022/09/17 07:39:17;;;;;;;3.58;1.27;;;;;;;24.88;48.60;100179.84;5073620;28;20049;-73
2022/09/17 07:41:44;;;;;;;3.13;1.25;;;;;;;24.88;48.64;100184.44;5073555;28;20044;-73
2022/09/17 07:44:11;;;;;;;4.65;1.20;;;;;;;24.87;48.46;100189.00;5073786;28;20055;-74
2022/09/17 07:46:38;;;;;;;4.70;1.35;;;;;;;24.87;48.67;100197.13;5072555;28;20055;-73
2022/09/17 07:49:06;;;;;;;1.83;1.33;;;;;;;24.87;48.53;100204.38;5073770;28;20044;-73
2022/09/17 07:51:33;;;;;;;4.10;1.48;;;;;;;24.88;48.35;100206.94;5073715;28;20044;-73
2022/09/17 07:54:01;;;;;;;4.90;1.40;;;;;;;24.88;48.28;100196.09;5072463;28;20052;-73
2022/09/17 07:56:28;;;;;;;4.15;1.15;;;;;;;24.88;48.28;100195.28;5073620;28;20384;-73
2022/09/17 07:58:56;;;;;;;2.85;1.30;;;;;;;24.87;48.55;100185.44;5073817;28;20037;-73
2022/09/17 08:01:23;;;;;;;1.85;1.00;;;;;;;24.87;48.68;100175.47;5073323;28;20049;-72
2022/09/17 08:03:52;;;;;;;2.25;1.10;;;;;;;24.88;48.55;100171.72;5073255;28;20044;-73
2022/09/17 08:06:29;;;;;;;3.00;1.42;;;;;;;24.88;48.59;100160.06;5073725;28;20396;-72
2022/09/17 08:09:00;;;;;;;5.10;1.35;;;;;;;24.88;48.89;100181.72;5073390;28;20044;-73
2022/09/17 08:11:29;;;;;;;3.65;1.10;;;;;;;24.88;48.63;100215.06;5073682;28;20059;-73
2022/09/17 08:14:16;;;;;;;2.58;1.40;;;;;;;24.88;48.53;100273.78;5073274;28;20045;-73
2022/09/17 08:16:46;;;;;;;5.72;1.50;;;;;;;24.87;48.56;100331.66;5073762;28;20464;-73
2022/09/17 08:19:13;;;;;;;3.72;1.48;;;;;;;24.85;48.80;100361.63;5073700;28;20036;-74
2022/09/17 08:21:40;;;;;;;2.70;1.52;;;;;;;24.85;48.52;100366.19;5075282;28;20075;-73
2022/09/17 08:24:08;;;;;;;2.03;1.27;;;;;;;24.83;48.94;100358.25;5077000;28;20044;-73
2022/09/17 08:26:35;;;;;;;3.80;1.73;;;;;;;24.83;48.57;100347.44;5077143;28;20045;-73
2022/09/17 08:29:02;;;;;;;2.65;1.35;;;;;;;24.82;48.67;100361.97;5076944;28;20476;-72
2022/09/17 08:31:32;;;;;;;3.25;1.40;;;;;;;24.83;48.31;100368.22;5076930;28;20048;-73
2022/09/17 08:34:00;;;;;;;4.63;1.52;;;;;;;24.82;48.64;100382.78;5077023;28;20044;-73
2022/09/17 08:36:27;;;;;;;2.70;1.40;;;;;;;24.82;48.78;100390.91;5077635;28;20049;-73
2022/09/17 08:38:55;;;;;;;2.53;1.50;;;;;;;24.73;48.34;100392.00;5076974;28;20392;-73
2022/09/17 08:41:31;;;;;;;1.90;1.33;;;;;;;24.65;48.09;100393.72;5076720;28;20392;-73
2022/09/17 08:44:25;;;;;;;1.92;1.45;;;;;;;24.57;48.61;100404.59;5077497;28;20047;-73
2022/09/17 08:47:05;;;;;;;3.50;1.20;;;;;;;24.51;48.69;100401.72;5076835;28;20056;-73
2022/09/17 08:50:16;;;;;;;4.80;1.52;;;;;;;24.46;48.47;100418.50;5075542;28;20045;-73
2022/09/17 08:53:05;;;;;;;3.95;1.48;;;;;;;24.41;48.54;100429.84;5075962;28;20061;-73
2022/09/17 08:55:41;;;;;;;2.65;1.10;;;;;;;24.40;48.44;100438.16;5076820;28;20045;-73
2022/09/17 08:58:17;;;;;;;2.40;1.25;;;;;;;24.37;48.70;100450.13;5077146;28;20044;-73
2022/09/17 09:00:54;;;;;;;2.45;0.98;;;;;;;24.36;48.38;100464.69;5076746;28;20047;-73
2022/09/17 09:04:02;;;;;;;2.33;1.10;;;;;;;24.34;48.29;100473.97;5076980;28;20048;-74
2022/09/17 09:06:35;;;;;;;3.25;1.00;;;;;;;24.32;48.25;100467.91;5076305;28;20052;-72
2022/09/17 09:09:07;;;;;;;;;;;;;;;24.31;48.22;100467.06;5076827;28;20044;-73
2022/09/17 09:11:35;;;;;;;2.72;1.10;;;;;;;24.29;47.76;100466.38;5076841;28;19928;-73
2022/09/17 09:14:22;;;;;;;3.03;1.33;;;;;;;24.27;48.33;100462.19;5076176;28;20047;-72
2022/09/17 09:16:52;;;;;;;5.32;1.15;;;;;;;24.27;48.21;100454.91;5075504;28;20052;-73
2022/09/17 09:19:30;;;;;;;3.60;1.75;;;;;;;24.28;47.92;100466.56;5076658;28;20043;-73
2022/09/17 09:21:58;;;;;;;8.77;1.45;;;;;;;24.25;47.99;100467.75;5076178;28;20059;-73
2022/09/17 09:24:44;;;;;;;3.08;1.25;;;;;;;24.24;47.46;100446.28;5075967;28;20045;-73
2022/09/17 09:27:16;;;;;;;3.50;1.10;;;;;;;24.16;47.55;100429.06;5076520;28;20055;-74
2022/09/17 09:29:53;;;;;;;2.55;1.33;;;;;;;24.10;47.90;100416.22;5075926;28;20044;-73
2022/09/17 09:32:31;;;;;;;5.35;1.13;;;;;;;24.09;47.74;100411.81;5075308;28;20045;-73
2022/09/17 09:35:11;;;;;;;4.00;1.30;;;;;;;24.05;47.52;100423.16;5075655;28;20420;-73
2022/09/17 09:37:43;;;;;;;2.85;1.30;;;;;;;24.04;47.37;100438.56;5076725;28;20055;-73
2022/09/17 09:40:38;;;;;;;5.20;1.70;;;;;;;24.05;47.89;100458.31;5075982;28;20041;-73
2022/09/17 09:43:50;;;;;;;3.08;1.60;;;;;;;23.97;47.96;100475.41;5075936;28;20059;-78
2022/09/17 09:46:47;;;;;;;2.58;1.15;;;;;;;22.47;50.49;100496.97;5076104;28;20045;-76
2022/09/17 09:49:33;;;;;;;3.97;1.20;;;;;;;22.12;51.64;100514.94;5075878;28;20051;-76
2022/09/17 09:52:22;;;;;;;3.45;1.27;;;;;;;21.54;52.68;100528.94;5076191;28;20055;-73
2022/09/17 09:55:02;;;;;;;2.67;1.20;;;;;;;21.89;52.20;100546.09;5075881;28;20048;-74
2022/09/17 09:57:44;;;;;;;2.10;1.35;;;;;;;21.69;52.46;100540.03;5075796;28;20091;-78
2022/09/17 10:00:35;;;;;;;3.88;1.60;;;;;;;21.67;52.03;100550.97;5075829;28;20048;-73
2022/09/17 10:03:03;;;;;;;7.10;1.77;;;;;;;21.67;52.14;100537.50;5076032;28;20049;-76
2022/09/17 10:05:30;;;;;;;2.03;1.50;;;;;;;20.75;54.24;100532.22;5075535;28;20045;-73
2022/09/17 10:07:58;;;;;;;4.13;1.45;;;;;;;19.81;56.34;100515.16;5075751;28;20052;-73
2022/09/17 10:10:25;;;;;;;4.05;1.42;;;;;;;19.85;55.98;100513.88;5074971;28;20033;-74
2022/09/17 10:13:06;;;;;;;2.72;1.60;;;;;;;20.09;55.58;100514.25;5076086;28;20044;-76
2022/09/17 10:15:33;;;;;;;4.53;1.73;;;;;;;20.48;54.96;100500.72;5075684;28;20044;-74
2022/09/17 10:18:14;;;;;;;1.80;1.27;;;;;;;20.84;54.53;100511.66;5075544;28;20047;-74
2022/09/17 10:21:00;;;;;;;3.40;1.60;;;;;;;21.17;53.62;100511.03;5075894;28;20052;-73
2022/09/17 10:23:30;;;;;;;2.45;1.40;;;;;;;21.17;53.22;100519.09;5074898;28;20484;-73
2022/09/17 10:25:57;;;;;;;1.77;1.20;;;;;;;20.82;54.08;100513.63;5075240;28;20045;-73
2022/09/17 10:28:32;;;;;;;3.47;1.60;;;;;;;20.31;55.24;100504.19;5075115;28;20044;-73
2022/09/17 10:31:03;;;;;;;3.70;1.92;;;;;;;19.98;55.96;100506.38;5075214;28;20049;-73
2022/09/17 10:34:01;;;;;;;3.17;1.60;;;;;;;20.19;55.90;100511.56;5074614;28;20056;-74
2022/09/17 10:36:39;;;;;;;2.50;1.80;;;;;;;20.33;55.91;100494.97;5074582;28;20048;-73
2022/09/17 10:39:31;;;;;;;3.22;1.63;;;;;;;20.51;55.45;100487.03;5075053;28;20032;-73
2022/09/17 10:42:13;;;;;;;2.38;1.73;;;;;;;20.35;55.52;100481.41;5075047;28;20063;-73
2022/09/17 10:44:53;;;;;;;1.95;1.60;;;;;;;19.75;57.42;100450.28;5075364;28;20053;-74
2022/09/17 10:47:25;;;;;;;3.08;1.88;;;;;;;19.76;57.80;100446.59;5076123;28;20518;-74
2022/09/17 10:49:59;;;;;;;1.95;1.60;;;;;;;19.37;59.18;100412.72;5077004;28;20040;-73
2022/09/17 10:52:31;;;;;;;2.50;1.90;;;;;;;19.22;59.54;100417.66;5074366;28;20053;-75
2022/09/17 10:54:58;;;;;;;2.95;1.75;;;;;;;19.00;60.20;100416.94;5074931;28;20055;-75
2022/09/17 10:58:09;;;;;;;2.60;1.98;;;;;;;18.86;61.00;100437.94;5075506;28;20055;-75
2022/09/17 11:00:43;;;;;;;2.67;2.00;;;;;;;18.89;61.19;100456.44;5074128;28;20036;-74
2022/09/17 11:03:44;;;;;;;2.65;2.25;;;;;;;18.51;62.27;100466.03;5074245;28;20372;-74
2022/09/17 11:06:36;;;;;;;2.45;2.17;;;;;;;18.69;62.47;100456.38;5092435;28;20071;-74
2022/09/17 11:09:47;;;;;;;3.90;2.20;;;;;;;18.22;62.99;100463.22;5092426;28;20044;-75
2022/09/17 11:12:39;;;;;;;2.55;2.22;;;;;;;18.12;63.54;100447.09;5084037;28;20056;-74
2022/09/17 11:15:21;;;;;;;2.35;2.08;;;;;;;18.29;63.17;100451.00;5092147;28;20044;-74
2022/09/17 11:17:54;;;;;;;2.35;2.15;;;;;;;18.34;62.29;100458.63;5092185;28;20056;-73
2022/09/17 11:21:00;;;;;;;2.10;1.90;;;;;;;18.40;62.08;100439.34;5092251;28;20075;-74
2022/09/17 11:23:55;;;;;;;2.30;2.10;;;;;;;18.35;61.60;100442.44;5092033;28;20063;-74
2022/09/17 11:26:55;;;;;;;2.65;1.92;;;;;;;18.35;61.12;100447.78;5092304;28;20052;-75
2022/09/17 11:29:52;;;;;;;2.25;2.00;;;;;;;18.44;59.90;100443.44;5092404;28;20186;-74
2022/09/17 11:32:22;;;;;;;3.13;2.15;;;;;;;18.31;60.84;100466.94;5092280;28;20059;-74
2022/09/17 11:34:58;;;;;;;2.20;2.00;;;;;;;18.38;60.07;100454.69;5092011;28;20068;-74
2022/09/17 11:37:48;;;;;;;2.10;1.90;;;;;;;18.32;60.61;100450.72;5075471;28;20501;-74
2022/09/17 11:40:39;;;;;;;2.42;1.90;;;;;;;18.22;59.75;100442.63;5091833;28;20431;-73
2022/09/17 11:43:27;;;;;;;2.00;1.80;;;;;;;18.37;58.73;100443.13;5082509;28;20060;-75
2022/09/17 11:46:00;;;;;;;2.15;1.95;;;;;;;18.38;57.78;100444.81;5073621;28;20052;-75
2022/09/17 11:48:34;;;;;;;;;;;;;;;18.61;58.37;100444.63;5074407;28;20393;-74
2022/09/17 11:51:21;;;;;;;3.45;1.70;;;;;;;18.93;58.45;100444.47;5073629;28;19921;-74
2022/09/17 11:53:53;;;;;;;2.10;1.60;;;;;;;19.26;58.91;100427.97;5073877;28;20045;-74
2022/09/17 11:56:34;;;;;;;1.85;1.55;;;;;;;19.61;58.56;100421.19;5072996;28;20060;-75
2022/09/17 11:59:14;;;;;;;2.17;1.65;;;;;;;19.89;58.41;100414.06;5086287;28;20043;-74
2022/09/17 12:01:50;;;;;;;2.30;1.40;;;;;;;20.14;56.59;100411.72;5086384;28;20040;-74
2022/09/17 12:04:30;;;;;;;1.70;1.30;;;;;;;19.71;55.80;100418.47;5084661;28;20044;-75